sensor_id;sensor_type;location;lat;lon;timestamp;temperature;humidity
6690;DHT22;3382;51.576;8.076;2023-04-25T00:02:05;8.10;99.90
6690;DHT22;3382;51.576;8.076;2023-04-25T00:04:32;8.10;99.90
6690;DHT22;3382;51.576;8.076;2023-04-25T00:06:59;8.10;99.90
6690;DHT22;3382;51.576;8.076;2023-04-25T00:09:27;8.10;99.90
6690;DHT22;3382;51.576;8.076;2023-04-25T00:11:53;8.10;99.90
6690;DHT22;3382;51.576;8.076;2023-04-25T00:14:18;8.10;99.90
6690;DHT22;3382;51.576;8.076;2023-04-25T00:16:44;8.10;99.90
6690;DHT22;3382;51.576;8.076;2023-04-25T00:19:09;8.10;99.90
6690;DHT22;3382;51.576;8.076;2023-04-25T00:21:35;8.00;99.90
6690;DHT22;3382;51.576;8.076;2023-04-25T00:24:03;8.00;99.90
6690;DHT22;3382;51.576;8.076;2023-04-25T00:26:29;8.00;99.90
6690;DHT22;3382;51.576;8.076;2023-04-25T00:28:54;8.00;99.90
6690;DHT22;3382;51.576;8.076;2023-04-25T00:31:21;8.00;99.90
6690;DHT22;3382;51.576;8.076;2023-04-25T00:33:47;8.00;99.90
6690;DHT22;3382;51.576;8.076;2023-04-25T00:36:12;8.00;99.90
6690;DHT22;3382;51.576;8.076;2023-04-25T00:38:38;8.00;99.90
6690;DHT22;3382;51.576;8.076;2023-04-25T00:41:06;8.10;99.90
6690;DHT22;3382;51.576;8.076;2023-04-25T00:43:32;8.10;99.90
6690;DHT22;3382;51.576;8.076;2023-04-25T00:46:00;8.10;99.90
6690;DHT22;3382;51.576;8.076;2023-04-25T00:48:26;8.10;99.90
6690;DHT22;3382;51.576;8.076;2023-04-25T00:50:53;8.10;99.90
6690;DHT22;3382;51.576;8.076;2023-04-25T00:53:23;8.20;99.90
6690;DHT22;3382;51.576;8.076;2023-04-25T00:55:50;8.20;99.90
6690;DHT22;3382;51.576;8.076;2023-04-25T00:58:20;8.20;99.90
6690;DHT22;3382;51.576;8.076;2023-04-25T01:00:46;8.20;99.90
6690;DHT22;3382;51.576;8.076;2023-04-25T01:03:13;8.30;99.90
6690;DHT22;3382;51.576;8.076;2023-04-25T01:05:42;8.30;99.90
6690;DHT22;3382;51.576;8.076;2023-04-25T01:08:07;8.50;99.90
6690;DHT22;3382;51.576;8.076;2023-04-25T01:10:33;8.40;99.90
6690;DHT22;3382;51.576;8.076;2023-04-25T01:12:59;8.40;99.90
6690;DHT22;3382;51.576;8.076;2023-04-25T01:15:25;8.40;99.90
6690;DHT22;3382;51.576;8.076;2023-04-25T01:17:50;8.50;99.90
6690;DHT22;3382;51.576;8.076;2023-04-25T01:20:16;8.50;99.90
6690;DHT22;3382;51.576;8.076;2023-04-25T01:22:42;8.60;99.90
6690;DHT22;3382;51.576;8.076;2023-04-25T01:25:08;8.60;99.90
6690;DHT22;3382;51.576;8.076;2023-04-25T01:27:36;8.60;99.90
6690;DHT22;3382;51.576;8.076;2023-04-25T01:30:01;8.70;99.90
6690;DHT22;3382;51.576;8.076;2023-04-25T01:32:27;8.80;99.90
6690;DHT22;3382;51.576;8.076;2023-04-25T01:34:53;8.90;99.90
6690;DHT22;3382;51.576;8.076;2023-04-25T01:37:19;9.00;99.90
6690;DHT22;3382;51.576;8.076;2023-04-25T01:39:44;9.00;99.90
6690;DHT22;3382;51.576;8.076;2023-04-25T01:42:10;9.10;99.90
6690;DHT22;3382;51.576;8.076;2023-04-25T01:44:36;9.10;99.90
6690;DHT22;3382;51.576;8.076;2023-04-25T01:47:01;9.20;99.90
6690;DHT22;3382;51.576;8.076;2023-04-25T01:49:27;9.20;99.90
6690;DHT22;3382;51.576;8.076;2023-04-25T01:51:53;9.20;99.90
6690;DHT22;3382;51.576;8.076;2023-04-25T01:54:18;9.20;99.90
6690;DHT22;3382;51.576;8.076;2023-04-25T01:56:50;9.30;99.90
6690;DHT22;3382;51.576;8.076;2023-04-25T01:59:16;9.20;99.90
6690;DHT22;3382;51.576;8.076;2023-04-25T02:01:42;9.20;99.90
6690;DHT22;3382;51.576;8.076;2023-04-25T02:04:07;9.20;99.90
6690;DHT22;3382;51.576;8.076;2023-04-25T02:06:33;9.30;99.90
6690;DHT22;3382;51.576;8.076;2023-04-25T02:08:58;9.40;99.90
6690;DHT22;3382;51.576;8.076;2023-04-25T02:11:24;9.30;99.90
6690;DHT22;3382;51.576;8.076;2023-04-25T02:13:50;9.30;99.90
6690;DHT22;3382;51.576;8.076;2023-04-25T02:16:15;9.20;99.90
6690;DHT22;3382;51.576;8.076;2023-04-25T02:18:41;9.20;99.90
6690;DHT22;3382;51.576;8.076;2023-04-25T02:21:07;9.20;99.90
6690;DHT22;3382;51.576;8.076;2023-04-25T02:23:32;9.20;99.90
6690;DHT22;3382;51.576;8.076;2023-04-25T02:25:58;9.10;99.90
6690;DHT22;3382;51.576;8.076;2023-04-25T02:28:24;9.10;99.90
6690;DHT22;3382;51.576;8.076;2023-04-25T02:30:51;9.00;99.90
6690;DHT22;3382;51.576;8.076;2023-04-25T02:33:17;9.00;99.90
6690;DHT22;3382;51.576;8.076;2023-04-25T02:35:42;8.90;99.90
6690;DHT22;3382;51.576;8.076;2023-04-25T02:38:08;8.80;99.90
6690;DHT22;3382;51.576;8.076;2023-04-25T02:40:34;9.00;99.90
6690;DHT22;3382;51.576;8.076;2023-04-25T02:42:59;8.80;99.90
6690;DHT22;3382;51.576;8.076;2023-04-25T02:45:25;8.70;99.90
6690;DHT22;3382;51.576;8.076;2023-04-25T02:47:50;8.80;99.90
6690;DHT22;3382;51.576;8.076;2023-04-25T02:50:16;8.80;99.90
6690;DHT22;3382;51.576;8.076;2023-04-25T02:52:43;8.80;99.90
6690;DHT22;3382;51.576;8.076;2023-04-25T02:55:10;8.80;99.90
6690;DHT22;3382;51.576;8.076;2023-04-25T02:57:36;8.90;99.90
6690;DHT22;3382;51.576;8.076;2023-04-25T03:00:01;8.80;99.90
6690;DHT22;3382;51.576;8.076;2023-04-25T03:02:27;8.80;99.90
6690;DHT22;3382;51.576;8.076;2023-04-25T03:04:52;8.80;99.90
6690;DHT22;3382;51.576;8.076;2023-04-25T03:07:19;8.80;99.90
6690;DHT22;3382;51.576;8.076;2023-04-25T03:09:44;8.80;99.90
6690;DHT22;3382;51.576;8.076;2023-04-25T03:12:10;8.80;99.90
6690;DHT22;3382;51.576;8.076;2023-04-25T03:14:35;8.80;99.90
6690;DHT22;3382;51.576;8.076;2023-04-25T03:17:01;8.80;99.90
6690;DHT22;3382;51.576;8.076;2023-04-25T03:19:26;8.80;99.90
6690;DHT22;3382;51.576;8.076;2023-04-25T03:21:52;8.70;99.90
6690;DHT22;3382;51.576;8.076;2023-04-25T03:24:18;8.70;99.90
6690;DHT22;3382;51.576;8.076;2023-04-25T03:26:44;8.70;99.90
6690;DHT22;3382;51.576;8.076;2023-04-25T03:29:10;8.70;99.90
6690;DHT22;3382;51.576;8.076;2023-04-25T03:31:36;8.70;99.90
6690;DHT22;3382;51.576;8.076;2023-04-25T03:34:02;8.80;99.90
6690;DHT22;3382;51.576;8.076;2023-04-25T03:36:28;8.80;99.90
6690;DHT22;3382;51.576;8.076;2023-04-25T03:38:53;8.70;99.90
6690;DHT22;3382;51.576;8.076;2023-04-25T03:41:19;8.80;99.90
6690;DHT22;3382;51.576;8.076;2023-04-25T03:43:45;8.70;99.90
6690;DHT22;3382;51.576;8.076;2023-04-25T03:46:10;8.70;99.90
6690;DHT22;3382;51.576;8.076;2023-04-25T03:48:36;8.70;99.90
6690;DHT22;3382;51.576;8.076;2023-04-25T03:51:02;8.80;99.90
6690;DHT22;3382;51.576;8.076;2023-04-25T03:53:28;9.00;99.90
6690;DHT22;3382;51.576;8.076;2023-04-25T03:55:53;9.00;99.90
6690;DHT22;3382;51.576;8.076;2023-04-25T03:58:19;9.10;99.90
6690;DHT22;3382;51.576;8.076;2023-04-25T04:00:44;9.00;99.90
6690;DHT22;3382;51.576;8.076;2023-04-25T04:03:10;9.20;99.90
6690;DHT22;3382;51.576;8.076;2023-04-25T04:05:36;9.10;99.90
6690;DHT22;3382;51.576;8.076;2023-04-25T04:08:02;9.20;99.90
6690;DHT22;3382;51.576;8.076;2023-04-25T04:10:28;9.00;99.90
6690;DHT22;3382;51.576;8.076;2023-04-25T04:12:53;9.10;99.90
6690;DHT22;3382;51.576;8.076;2023-04-25T04:15:19;9.10;99.90
6690;DHT22;3382;51.576;8.076;2023-04-25T04:17:45;9.10;99.90
6690;DHT22;3382;51.576;8.076;2023-04-25T04:20:12;9.00;99.90
6690;DHT22;3382;51.576;8.076;2023-04-25T04:22:37;9.00;99.90
6690;DHT22;3382;51.576;8.076;2023-04-25T04:25:03;9.00;99.90
6690;DHT22;3382;51.576;8.076;2023-04-25T04:27:30;8.90;99.90
6690;DHT22;3382;51.576;8.076;2023-04-25T04:29:55;8.90;99.90
6690;DHT22;3382;51.576;8.076;2023-04-25T04:32:21;8.80;99.90
6690;DHT22;3382;51.576;8.076;2023-04-25T04:34:48;8.80;99.90
6690;DHT22;3382;51.576;8.076;2023-04-25T04:37:14;8.90;99.90
6690;DHT22;3382;51.576;8.076;2023-04-25T04:39:40;8.80;99.90
6690;DHT22;3382;51.576;8.076;2023-04-25T04:42:06;9.00;99.90
6690;DHT22;3382;51.576;8.076;2023-04-25T04:44:31;8.80;99.90
6690;DHT22;3382;51.576;8.076;2023-04-25T04:47:00;8.80;99.90
6690;DHT22;3382;51.576;8.076;2023-04-25T04:49:27;8.80;99.90
6690;DHT22;3382;51.576;8.076;2023-04-25T04:51:52;8.80;99.90
6690;DHT22;3382;51.576;8.076;2023-04-25T04:54:19;8.80;99.90
6690;DHT22;3382;51.576;8.076;2023-04-25T04:56:45;8.80;99.90
6690;DHT22;3382;51.576;8.076;2023-04-25T04:59:11;8.80;99.90
6690;DHT22;3382;51.576;8.076;2023-04-25T05:01:37;8.90;99.90
6690;DHT22;3382;51.576;8.076;2023-04-25T05:04:02;8.90;99.90
6690;DHT22;3382;51.576;8.076;2023-04-25T05:06:29;9.10;99.90
6690;DHT22;3382;51.576;8.076;2023-04-25T05:08:55;9.60;99.90
6690;DHT22;3382;51.576;8.076;2023-04-25T05:11:22;10.10;99.90
6690;DHT22;3382;51.576;8.076;2023-04-25T05:13:49;10.50;99.90
6690;DHT22;3382;51.576;8.076;2023-04-25T05:16:15;11.30;99.90
6690;DHT22;3382;51.576;8.076;2023-04-25T05:18:40;11.80;99.90
6690;DHT22;3382;51.576;8.076;2023-04-25T05:21:06;12.00;99.90
6690;DHT22;3382;51.576;8.076;2023-04-25T05:23:35;12.50;99.90
6690;DHT22;3382;51.576;8.076;2023-04-25T05:26:00;12.50;99.90
6690;DHT22;3382;51.576;8.076;2023-04-25T05:28:26;12.10;99.90
6690;DHT22;3382;51.576;8.076;2023-04-25T05:30:52;11.40;99.90
6690;DHT22;3382;51.576;8.076;2023-04-25T05:33:18;11.00;99.90
6690;DHT22;3382;51.576;8.076;2023-04-25T05:35:43;11.90;99.90
6690;DHT22;3382;51.576;8.076;2023-04-25T05:38:09;13.10;99.90
6690;DHT22;3382;51.576;8.076;2023-04-25T05:40:35;13.60;99.90
6690;DHT22;3382;51.576;8.076;2023-04-25T05:43:01;13.00;99.90
6690;DHT22;3382;51.576;8.076;2023-04-25T05:45:27;12.20;99.90
6690;DHT22;3382;51.576;8.076;2023-04-25T05:47:52;11.60;99.90
6690;DHT22;3382;51.576;8.076;2023-04-25T05:50:18;11.30;99.90
6690;DHT22;3382;51.576;8.076;2023-04-25T05:52:43;11.00;99.90
6690;DHT22;3382;51.576;8.076;2023-04-25T05:55:09;10.80;99.90
6690;DHT22;3382;51.576;8.076;2023-04-25T05:57:35;10.70;99.90
6690;DHT22;3382;51.576;8.076;2023-04-25T06:00:00;10.60;99.90
6690;DHT22;3382;51.576;8.076;2023-04-25T06:02:26;10.50;99.90
6690;DHT22;3382;51.576;8.076;2023-04-25T06:04:52;10.50;99.90
6690;DHT22;3382;51.576;8.076;2023-04-25T06:07:18;10.30;99.90
6690;DHT22;3382;51.576;8.076;2023-04-25T06:09:45;10.20;99.90
6690;DHT22;3382;51.576;8.076;2023-04-25T06:12:10;10.20;99.90
6690;DHT22;3382;51.576;8.076;2023-04-25T06:14:36;10.10;99.90
6690;DHT22;3382;51.576;8.076;2023-04-25T06:17:02;10.10;99.90
6690;DHT22;3382;51.576;8.076;2023-04-25T06:19:35;10.10;99.90
6690;DHT22;3382;51.576;8.076;2023-04-25T06:22:01;10.10;99.90
6690;DHT22;3382;51.576;8.076;2023-04-25T06:24:27;10.00;99.90
6690;DHT22;3382;51.576;8.076;2023-04-25T06:26:53;10.00;99.90
6690;DHT22;3382;51.576;8.076;2023-04-25T06:29:19;10.00;99.90
6690;DHT22;3382;51.576;8.076;2023-04-25T06:31:45;10.00;99.90
6690;DHT22;3382;51.576;8.076;2023-04-25T06:34:11;10.10;99.90
6690;DHT22;3382;51.576;8.076;2023-04-25T06:36:36;10.30;99.90
6690;DHT22;3382;51.576;8.076;2023-04-25T06:39:02;10.30;99.90
6690;DHT22;3382;51.576;8.076;2023-04-25T06:41:28;10.30;99.90
6690;DHT22;3382;51.576;8.076;2023-04-25T06:43:53;10.50;99.90
6690;DHT22;3382;51.576;8.076;2023-04-25T06:46:19;10.50;99.90
6690;DHT22;3382;51.576;8.076;2023-04-25T06:48:44;10.40;99.90
6690;DHT22;3382;51.576;8.076;2023-04-25T06:51:10;10.60;99.90
6690;DHT22;3382;51.576;8.076;2023-04-25T06:53:36;10.60;99.90
6690;DHT22;3382;51.576;8.076;2023-04-25T06:56:02;10.80;99.90
6690;DHT22;3382;51.576;8.076;2023-04-25T06:58:28;11.00;99.90
6690;DHT22;3382;51.576;8.076;2023-04-25T07:00:53;10.80;99.90
6690;DHT22;3382;51.576;8.076;2023-04-25T07:03:19;10.80;99.90
6690;DHT22;3382;51.576;8.076;2023-04-25T07:05:46;11.00;99.90
6690;DHT22;3382;51.576;8.076;2023-04-25T07:08:11;10.90;99.90
6690;DHT22;3382;51.576;8.076;2023-04-25T07:10:37;11.00;99.90
6690;DHT22;3382;51.576;8.076;2023-04-25T07:13:03;10.90;99.90
6690;DHT22;3382;51.576;8.076;2023-04-25T07:15:28;10.80;99.90
6690;DHT22;3382;51.576;8.076;2023-04-25T07:17:54;10.80;99.90
6690;DHT22;3382;51.576;8.076;2023-04-25T07:20:19;10.70;99.90
6690;DHT22;3382;51.576;8.076;2023-04-25T07:22:45;10.70;99.90
6690;DHT22;3382;51.576;8.076;2023-04-25T07:25:11;10.70;99.90
6690;DHT22;3382;51.576;8.076;2023-04-25T07:27:36;10.70;99.90
6690;DHT22;3382;51.576;8.076;2023-04-25T07:30:03;10.70;99.90
6690;DHT22;3382;51.576;8.076;2023-04-25T07:32:29;10.80;99.90
6690;DHT22;3382;51.576;8.076;2023-04-25T07:34:55;10.90;99.90
6690;DHT22;3382;51.576;8.076;2023-04-25T07:37:20;11.10;99.90
6690;DHT22;3382;51.576;8.076;2023-04-25T07:39:46;11.00;99.90
6690;DHT22;3382;51.576;8.076;2023-04-25T07:42:12;10.90;99.90
6690;DHT22;3382;51.576;8.076;2023-04-25T07:44:38;10.80;99.90
6690;DHT22;3382;51.576;8.076;2023-04-25T07:47:06;10.80;99.90
6690;DHT22;3382;51.576;8.076;2023-04-25T07:49:35;10.70;99.90
6690;DHT22;3382;51.576;8.076;2023-04-25T07:52:02;10.80;99.90
6690;DHT22;3382;51.576;8.076;2023-04-25T07:54:28;10.80;99.90
6690;DHT22;3382;51.576;8.076;2023-04-25T07:56:53;10.80;99.90
6690;DHT22;3382;51.576;8.076;2023-04-25T07:59:19;10.80;99.90
6690;DHT22;3382;51.576;8.076;2023-04-25T08:01:45;10.80;99.90
6690;DHT22;3382;51.576;8.076;2023-04-25T08:04:11;10.80;99.90
6690;DHT22;3382;51.576;8.076;2023-04-25T08:06:36;10.80;99.90
6690;DHT22;3382;51.576;8.076;2023-04-25T08:09:02;11.00;99.90
6690;DHT22;3382;51.576;8.076;2023-04-25T08:11:29;11.10;99.90
6690;DHT22;3382;51.576;8.076;2023-04-25T08:13:55;11.40;99.90
6690;DHT22;3382;51.576;8.076;2023-04-25T08:16:21;11.60;99.90
6690;DHT22;3382;51.576;8.076;2023-04-25T08:18:47;11.70;99.90
6690;DHT22;3382;51.576;8.076;2023-04-25T08:21:12;11.60;99.90
6690;DHT22;3382;51.576;8.076;2023-04-25T08:23:39;11.50;99.90
6690;DHT22;3382;51.576;8.076;2023-04-25T08:26:05;11.50;99.90
6690;DHT22;3382;51.576;8.076;2023-04-25T08:28:31;11.70;99.90
6690;DHT22;3382;51.576;8.076;2023-04-25T08:30:56;11.80;99.90
6690;DHT22;3382;51.576;8.076;2023-04-25T08:33:22;11.90;99.90
6690;DHT22;3382;51.576;8.076;2023-04-25T08:35:48;12.10;99.90
6690;DHT22;3382;51.576;8.076;2023-04-25T08:38:14;12.00;99.90
6690;DHT22;3382;51.576;8.076;2023-04-25T08:40:40;11.90;99.90
6690;DHT22;3382;51.576;8.076;2023-04-25T08:43:07;11.90;99.90
6690;DHT22;3382;51.576;8.076;2023-04-25T08:45:39;11.80;99.90
6690;DHT22;3382;51.576;8.076;2023-04-25T08:48:13;11.80;99.90
6690;DHT22;3382;51.576;8.076;2023-04-25T08:50:40;11.70;99.90
6690;DHT22;3382;51.576;8.076;2023-04-25T08:53:09;11.70;99.90
6690;DHT22;3382;51.576;8.076;2023-04-25T08:55:41;11.70;99.90
6690;DHT22;3382;51.576;8.076;2023-04-25T08:58:07;11.70;99.90
6690;DHT22;3382;51.576;8.076;2023-04-25T09:00:35;11.80;99.90
6690;DHT22;3382;51.576;8.076;2023-04-25T09:03:01;11.80;99.90
6690;DHT22;3382;51.576;8.076;2023-04-25T09:05:28;11.90;99.90
6690;DHT22;3382;51.576;8.076;2023-04-25T09:07:54;11.70;99.90
6690;DHT22;3382;51.576;8.076;2023-04-25T09:10:19;11.80;99.90
6690;DHT22;3382;51.576;8.076;2023-04-25T09:13:02;11.70;99.90
6690;DHT22;3382;51.576;8.076;2023-04-25T09:15:28;11.80;99.90
6690;DHT22;3382;51.576;8.076;2023-04-25T09:17:56;11.60;99.90
6690;DHT22;3382;51.576;8.076;2023-04-25T09:20:21;11.60;99.90
6690;DHT22;3382;51.576;8.076;2023-04-25T09:22:47;11.50;99.90
6690;DHT22;3382;51.576;8.076;2023-04-25T09:25:13;11.60;99.90
6690;DHT22;3382;51.576;8.076;2023-04-25T09:27:54;11.60;99.90
6690;DHT22;3382;51.576;8.076;2023-04-25T09:30:32;11.70;99.90
6690;DHT22;3382;51.576;8.076;2023-04-25T09:33:06;11.80;99.90
6690;DHT22;3382;51.576;8.076;2023-04-25T09:35:47;11.90;99.90
6690;DHT22;3382;51.576;8.076;2023-04-25T09:38:18;12.00;99.90
6690;DHT22;3382;51.576;8.076;2023-04-25T09:40:45;12.10;99.90
6690;DHT22;3382;51.576;8.076;2023-04-25T09:43:22;12.10;99.90
6690;DHT22;3382;51.576;8.076;2023-04-25T09:45:48;12.10;99.90
6690;DHT22;3382;51.576;8.076;2023-04-25T09:48:21;12.00;99.90
6690;DHT22;3382;51.576;8.076;2023-04-25T09:51:04;12.00;99.90
6690;DHT22;3382;51.576;8.076;2023-04-25T09:53:34;12.00;99.90
6690;DHT22;3382;51.576;8.076;2023-04-25T09:56:04;12.00;99.90
6690;DHT22;3382;51.576;8.076;2023-04-25T09:58:30;11.90;99.90
6690;DHT22;3382;51.576;8.076;2023-04-25T10:01:00;11.90;99.90
6690;DHT22;3382;51.576;8.076;2023-04-25T10:03:26;12.00;99.90
6690;DHT22;3382;51.576;8.076;2023-04-25T10:05:54;11.90;99.90
6690;DHT22;3382;51.576;8.076;2023-04-25T10:08:20;11.90;99.90
6690;DHT22;3382;51.576;8.076;2023-04-25T10:10:48;11.90;99.90
6690;DHT22;3382;51.576;8.076;2023-04-25T10:13:16;12.00;99.90
6690;DHT22;3382;51.576;8.076;2023-04-25T10:15:42;12.20;99.90
6690;DHT22;3382;51.576;8.076;2023-04-25T10:18:08;12.20;99.90
6690;DHT22;3382;51.576;8.076;2023-04-25T10:20:34;12.30;99.90
6690;DHT22;3382;51.576;8.076;2023-04-25T10:23:13;12.40;99.90
6690;DHT22;3382;51.576;8.076;2023-04-25T10:25:39;12.50;99.90
6690;DHT22;3382;51.576;8.076;2023-04-25T10:28:05;12.50;99.90
6690;DHT22;3382;51.576;8.076;2023-04-25T10:30:31;12.50;99.90
6690;DHT22;3382;51.576;8.076;2023-04-25T10:32:58;12.60;99.90
6690;DHT22;3382;51.576;8.076;2023-04-25T10:35:27;12.70;99.90
6690;DHT22;3382;51.576;8.076;2023-04-25T10:38:02;12.80;99.90
6690;DHT22;3382;51.576;8.076;2023-04-25T10:40:29;13.30;99.90
6690;DHT22;3382;51.576;8.076;2023-04-25T10:42:55;13.60;99.90
6690;DHT22;3382;51.576;8.076;2023-04-25T10:45:51;13.40;99.90
6690;DHT22;3382;51.576;8.076;2023-04-25T10:48:31;13.50;99.90
6690;DHT22;3382;51.576;8.076;2023-04-25T10:51:09;14.20;99.90
6690;DHT22;3382;51.576;8.076;2023-04-25T10:53:35;14.30;99.90
6690;DHT22;3382;51.576;8.076;2023-04-25T10:56:08;14.50;99.90
6690;DHT22;3382;51.576;8.076;2023-04-25T10:58:34;14.60;99.90
6690;DHT22;3382;51.576;8.076;2023-04-25T11:01:01;14.60;99.90
6690;DHT22;3382;51.576;8.076;2023-04-25T11:03:26;14.20;99.90
6690;DHT22;3382;51.576;8.076;2023-04-25T11:05:53;13.90;99.90
6690;DHT22;3382;51.576;8.076;2023-04-25T11:08:32;13.80;99.90
6690;DHT22;3382;51.576;8.076;2023-04-25T11:11:02;13.60;99.90
6690;DHT22;3382;51.576;8.076;2023-04-25T11:13:31;13.50;99.90
6690;DHT22;3382;51.576;8.076;2023-04-25T11:15:56;13.40;99.90
6690;DHT22;3382;51.576;8.076;2023-04-25T11:18:26;13.50;99.90
6690;DHT22;3382;51.576;8.076;2023-04-25T11:20:52;13.50;99.90
6690;DHT22;3382;51.576;8.076;2023-04-25T11:23:18;13.40;99.90
6690;DHT22;3382;51.576;8.076;2023-04-25T11:25:44;13.40;99.90
6690;DHT22;3382;51.576;8.076;2023-04-25T11:28:09;13.60;99.90
6690;DHT22;3382;51.576;8.076;2023-04-25T11:30:35;13.60;99.90
6690;DHT22;3382;51.576;8.076;2023-04-25T11:33:01;13.70;99.90
6690;DHT22;3382;51.576;8.076;2023-04-25T11:35:28;13.60;99.90
6690;DHT22;3382;51.576;8.076;2023-04-25T11:37:54;13.60;99.90
6690;DHT22;3382;51.576;8.076;2023-04-25T11:40:20;13.60;99.90
6690;DHT22;3382;51.576;8.076;2023-04-25T11:42:46;13.90;99.90
6690;DHT22;3382;51.576;8.076;2023-04-25T11:45:13;14.30;99.90
6690;DHT22;3382;51.576;8.076;2023-04-25T11:47:39;14.20;99.90
6690;DHT22;3382;51.576;8.076;2023-04-25T11:50:06;14.20;99.90
6690;DHT22;3382;51.576;8.076;2023-04-25T11:52:41;14.20;99.90
6690;DHT22;3382;51.576;8.076;2023-04-25T11:55:25;14.50;99.90
6690;DHT22;3382;51.576;8.076;2023-04-25T11:57:51;14.90;99.90
6690;DHT22;3382;51.576;8.076;2023-04-25T12:00:21;15.40;99.90
6690;DHT22;3382;51.576;8.076;2023-04-25T12:02:55;15.80;99.90
6690;DHT22;3382;51.576;8.076;2023-04-25T12:05:24;16.00;99.90
6690;DHT22;3382;51.576;8.076;2023-04-25T12:07:50;16.10;99.90
6690;DHT22;3382;51.576;8.076;2023-04-25T12:10:18;16.20;99.90
6690;DHT22;3382;51.576;8.076;2023-04-25T12:12:47;16.10;99.90
6690;DHT22;3382;51.576;8.076;2023-04-25T12:15:18;16.30;99.90
6690;DHT22;3382;51.576;8.076;2023-04-25T12:17:47;16.70;99.90
6690;DHT22;3382;51.576;8.076;2023-04-25T12:20:15;17.20;99.90
6690;DHT22;3382;51.576;8.076;2023-04-25T12:22:43;17.20;99.90
6690;DHT22;3382;51.576;8.076;2023-04-25T12:25:11;17.10;99.90
6690;DHT22;3382;51.576;8.076;2023-04-25T12:27:37;17.30;99.90
6690;DHT22;3382;51.576;8.076;2023-04-25T12:30:03;17.80;99.90
6690;DHT22;3382;51.576;8.076;2023-04-25T12:32:29;18.10;99.90
6690;DHT22;3382;51.576;8.076;2023-04-25T12:34:54;18.20;99.90
6690;DHT22;3382;51.576;8.076;2023-04-25T12:37:21;18.20;99.90
6690;DHT22;3382;51.576;8.076;2023-04-25T12:39:46;18.30;99.90
6690;DHT22;3382;51.576;8.076;2023-04-25T12:42:12;18.50;99.90
6690;DHT22;3382;51.576;8.076;2023-04-25T12:44:38;18.50;99.90
6690;DHT22;3382;51.576;8.076;2023-04-25T12:47:04;18.90;99.90
6690;DHT22;3382;51.576;8.076;2023-04-25T12:49:33;19.00;99.90
6690;DHT22;3382;51.576;8.076;2023-04-25T12:51:59;18.80;99.90
6690;DHT22;3382;51.576;8.076;2023-04-25T12:54:25;19.10;99.90
6690;DHT22;3382;51.576;8.076;2023-04-25T12:56:51;19.10;99.90
6690;DHT22;3382;51.576;8.076;2023-04-25T12:59:17;19.00;99.90
6690;DHT22;3382;51.576;8.076;2023-04-25T13:01:43;18.70;99.90
6690;DHT22;3382;51.576;8.076;2023-04-25T13:04:09;18.20;99.90
6690;DHT22;3382;51.576;8.076;2023-04-25T13:06:35;17.30;99.90
6690;DHT22;3382;51.576;8.076;2023-04-25T13:09:01;17.00;99.90
6690;DHT22;3382;51.576;8.076;2023-04-25T13:11:27;17.40;99.90
6690;DHT22;3382;51.576;8.076;2023-04-25T13:13:52;17.40;99.90
6690;DHT22;3382;51.576;8.076;2023-04-25T13:16:18;16.50;99.90
6690;DHT22;3382;51.576;8.076;2023-04-25T13:18:46;15.90;99.90
6690;DHT22;3382;51.576;8.076;2023-04-25T13:21:11;15.10;99.90
6690;DHT22;3382;51.576;8.076;2023-04-25T13:23:37;14.60;99.90
6690;DHT22;3382;51.576;8.076;2023-04-25T13:26:03;14.30;99.90
6690;DHT22;3382;51.576;8.076;2023-04-25T13:28:28;14.00;99.90
6690;DHT22;3382;51.576;8.076;2023-04-25T13:30:54;13.80;99.90
6690;DHT22;3382;51.576;8.076;2023-04-25T13:33:20;13.80;99.90
6690;DHT22;3382;51.576;8.076;2023-04-25T13:35:48;13.60;99.90
6690;DHT22;3382;51.576;8.076;2023-04-25T13:38:22;13.50;99.90
6690;DHT22;3382;51.576;8.076;2023-04-25T13:40:49;13.50;99.90
6690;DHT22;3382;51.576;8.076;2023-04-25T13:43:15;14.10;99.90
6690;DHT22;3382;51.576;8.076;2023-04-25T13:45:40;14.40;99.90
6690;DHT22;3382;51.576;8.076;2023-04-25T13:48:06;14.60;99.90
6690;DHT22;3382;51.576;8.076;2023-04-25T13:50:32;14.70;99.90
6690;DHT22;3382;51.576;8.076;2023-04-25T13:52:57;14.70;99.90
6690;DHT22;3382;51.576;8.076;2023-04-25T13:55:23;14.60;99.90
6690;DHT22;3382;51.576;8.076;2023-04-25T13:57:48;14.50;99.90
6690;DHT22;3382;51.576;8.076;2023-04-25T14:00:14;14.60;99.90
6690;DHT22;3382;51.576;8.076;2023-04-25T14:02:40;14.70;99.90
6690;DHT22;3382;51.576;8.076;2023-04-25T14:05:06;14.70;99.90
6690;DHT22;3382;51.576;8.076;2023-04-25T14:07:36;14.70;99.90
6690;DHT22;3382;51.576;8.076;2023-04-25T14:10:03;14.90;99.90
6690;DHT22;3382;51.576;8.076;2023-04-25T14:12:30;14.90;99.90
6690;DHT22;3382;51.576;8.076;2023-04-25T14:14:55;14.90;99.90
6690;DHT22;3382;51.576;8.076;2023-04-25T14:17:21;15.10;99.90
6690;DHT22;3382;51.576;8.076;2023-04-25T14:19:47;15.30;99.90
6690;DHT22;3382;51.576;8.076;2023-04-25T14:22:13;15.30;99.90
6690;DHT22;3382;51.576;8.076;2023-04-25T14:24:39;15.40;99.90
6690;DHT22;3382;51.576;8.076;2023-04-25T14:27:05;15.50;99.90
6690;DHT22;3382;51.576;8.076;2023-04-25T14:29:32;15.50;99.90
6690;DHT22;3382;51.576;8.076;2023-04-25T14:31:57;15.50;99.90
6690;DHT22;3382;51.576;8.076;2023-04-25T14:34:24;15.30;99.90
6690;DHT22;3382;51.576;8.076;2023-04-25T14:36:51;15.10;99.90
6690;DHT22;3382;51.576;8.076;2023-04-25T14:39:17;15.20;99.90
6690;DHT22;3382;51.576;8.076;2023-04-25T14:41:42;14.90;99.90
6690;DHT22;3382;51.576;8.076;2023-04-25T14:44:08;14.70;99.90
6690;DHT22;3382;51.576;8.076;2023-04-25T14:46:33;14.60;99.90
6690;DHT22;3382;51.576;8.076;2023-04-25T14:48:59;14.60;99.90
6690;DHT22;3382;51.576;8.076;2023-04-25T14:51:25;14.60;99.90
6690;DHT22;3382;51.576;8.076;2023-04-25T14:53:51;15.10;99.90
6690;DHT22;3382;51.576;8.076;2023-04-25T14:56:18;15.20;99.90
6690;DHT22;3382;51.576;8.076;2023-04-25T14:58:44;15.50;99.90
6690;DHT22;3382;51.576;8.076;2023-04-25T15:01:11;15.80;99.90
6690;DHT22;3382;51.576;8.076;2023-04-25T15:03:36;16.40;99.90
6690;DHT22;3382;51.576;8.076;2023-04-25T15:06:02;17.10;99.90
6690;DHT22;3382;51.576;8.076;2023-04-25T15:08:28;17.90;99.90
6690;DHT22;3382;51.576;8.076;2023-04-25T15:10:53;18.40;99.90
6690;DHT22;3382;51.576;8.076;2023-04-25T15:13:19;18.60;99.90
6690;DHT22;3382;51.576;8.076;2023-04-25T15:15:44;17.90;99.90
6690;DHT22;3382;51.576;8.076;2023-04-25T15:18:22;17.70;99.90
6690;DHT22;3382;51.576;8.076;2023-04-25T15:20:51;17.90;99.90
6690;DHT22;3382;51.576;8.076;2023-04-25T15:23:18;17.60;99.90
6690;DHT22;3382;51.576;8.076;2023-04-25T15:25:45;17.10;99.90
6690;DHT22;3382;51.576;8.076;2023-04-25T15:28:10;17.40;99.90
6690;DHT22;3382;51.576;8.076;2023-04-25T15:30:36;17.50;99.90
6690;DHT22;3382;51.576;8.076;2023-04-25T15:33:02;17.80;99.90
6690;DHT22;3382;51.576;8.076;2023-04-25T15:35:28;17.70;99.90
6690;DHT22;3382;51.576;8.076;2023-04-25T15:37:53;17.00;99.90
6690;DHT22;3382;51.576;8.076;2023-04-25T15:40:19;16.30;99.90
6690;DHT22;3382;51.576;8.076;2023-04-25T15:42:46;15.30;99.90
6690;DHT22;3382;51.576;8.076;2023-04-25T15:45:13;15.40;99.90
6690;DHT22;3382;51.576;8.076;2023-04-25T15:47:39;15.20;99.90
6690;DHT22;3382;51.576;8.076;2023-04-25T15:50:07;15.00;99.90
6690;DHT22;3382;51.576;8.076;2023-04-25T15:52:34;15.00;99.90
6690;DHT22;3382;51.576;8.076;2023-04-25T15:55:01;15.10;99.90
6690;DHT22;3382;51.576;8.076;2023-04-25T15:57:26;15.20;99.90
6690;DHT22;3382;51.576;8.076;2023-04-25T15:59:52;15.10;99.90
6690;DHT22;3382;51.576;8.076;2023-04-25T16:02:18;14.40;99.90
6690;DHT22;3382;51.576;8.076;2023-04-25T16:04:44;13.90;99.90